createdAt,value
2023-03-31T01:40:17.441Z,4.10
2023-03-31T02:15:44.872Z,5.80
2023-03-31T02:18:17.251Z,5.43
2023-03-31T02:20:44.054Z,5.40
2023-03-31T02:23:10.877Z,5.00
2023-03-31T02:25:42.594Z,4.90
2023-03-31T02:28:13.895Z,5.23
2023-03-31T02:30:59.328Z,5.40
2023-03-31T02:33:26.129Z,4.70
2023-03-31T02:35:53.023Z,5.33
2023-03-31T02:38:21.731Z,5.60
2023-03-31T02:40:50.205Z,5.10
2023-03-31T02:43:17.308Z,5.20
2023-03-31T02:45:45.189Z,5.00
2023-03-31T02:48:14.942Z,5.47
2023-03-31T02:51:07.611Z,5.33
2023-03-31T02:53:45.010Z,5.37
2023-03-31T02:56:15.752Z,5.53
2023-03-31T02:58:51.884Z,5.70
2023-03-31T03:01:31.151Z,5.60
2023-03-31T03:03:59.346Z,6.03
2023-03-31T03:06:32.181Z,6.10
2023-03-31T03:09:02.445Z,5.27
2023-03-31T03:11:32.376Z,6.40
2023-03-31T03:14:19.544Z,6.03
2023-03-31T03:16:50.354Z,6.67
2023-03-31T03:19:20.835Z,5.90
2023-03-31T03:21:47.673Z,5.77
2023-03-31T03:24:18.038Z,5.97
2023-03-31T03:26:45.040Z,6.20
2023-03-31T03:29:15.249Z,6.13
2023-03-31T03:31:42.199Z,6.50
2023-03-31T03:34:09.911Z,5.97
2023-03-31T03:36:37.808Z,6.17
2023-03-31T03:39:04.680Z,6.40
2023-03-31T03:41:31.883Z,6.17
2023-03-31T03:43:58.701Z,6.47
2023-03-31T03:46:26.630Z,7.07
2023-03-31T03:48:53.465Z,6.70
2023-03-31T03:51:21.024Z,6.60
2023-03-31T03:53:47.901Z,6.47
2023-03-31T03:56:14.554Z,6.10
2023-03-31T03:58:43.657Z,6.43
2023-03-31T04:01:11.076Z,6.97
2023-03-31T04:03:37.690Z,6.30
2023-03-31T04:06:05.699Z,6.90
2023-03-31T04:08:32.805Z,6.87
2023-03-31T04:11:00.287Z,7.20
2023-03-31T04:13:26.995Z,7.13
2023-03-31T04:15:53.963Z,6.40
2023-03-31T04:18:23.728Z,6.70
2023-03-31T04:20:54.874Z,7.30
2023-03-31T04:23:23.539Z,7.60
2023-03-31T04:25:53.508Z,7.40
2023-03-31T04:28:20.338Z,6.37
2023-03-31T04:30:47.105Z,7.10
2023-03-31T04:33:15.788Z,7.13
2023-03-31T04:35:52.737Z,7.10
2023-03-31T04:38:20.246Z,6.87
2023-03-31T04:40:50.753Z,6.47
2023-03-31T04:43:17.870Z,5.73
2023-03-31T04:45:44.452Z,6.80
2023-03-31T04:48:11.072Z,6.53
2023-03-31T04:50:38.576Z,6.97
2023-03-31T04:53:06.262Z,7.00
2023-03-31T04:55:32.962Z,6.40
2023-03-31T04:57:59.747Z,6.20
2023-03-31T05:00:26.745Z,6.80
2023-03-31T05:02:53.531Z,7.20
2023-03-31T05:05:20.334Z,7.30
2023-03-31T05:07:46.912Z,7.13
2023-03-31T05:10:13.470Z,8.00
2023-03-31T05:12:40.195Z,7.20
2023-03-31T05:15:07.332Z,7.90
2023-03-31T05:17:34.467Z,7.27
2023-03-31T05:20:01.775Z,8.43
2023-03-31T05:22:28.685Z,7.97
2023-03-31T05:24:55.345Z,7.80
2023-03-31T05:27:22.707Z,8.10
2023-03-31T05:29:49.369Z,8.77
2023-03-31T05:32:16.906Z,7.67
2023-03-31T05:34:45.268Z,8.10
2023-03-31T05:37:11.850Z,9.27
2023-03-31T05:39:38.491Z,9.27
2023-03-31T05:42:09.752Z,8.47
2023-03-31T05:44:36.584Z,8.57
2023-03-31T05:47:03.685Z,8.50
2023-03-31T05:49:30.450Z,8.80
2023-03-31T05:51:58.051Z,9.87
2023-03-31T05:54:24.735Z,8.87
2023-03-31T05:56:51.524Z,8.27
2023-03-31T05:59:18.321Z,9.23
2023-03-31T06:01:45.040Z,9.37
2023-03-31T06:04:11.755Z,9.57
2023-03-31T06:06:38.458Z,9.60
2023-03-31T06:09:05.472Z,10.00
2023-03-31T06:11:32.291Z,9.80
2023-03-31T06:13:58.880Z,10.23
2023-03-31T06:16:26.349Z,9.43
2023-03-31T06:18:54.176Z,9.60
2023-03-31T06:21:21.833Z,9.90
2023-03-31T06:23:48.690Z,10.00
2023-03-31T06:26:18.493Z,9.97
2023-03-31T06:28:45.490Z,10.40
2023-03-31T06:31:16.048Z,10.17
2023-03-31T06:33:42.839Z,9.60
2023-03-31T06:36:10.040Z,8.13
2023-03-31T06:38:36.964Z,9.70
2023-03-31T06:41:04.358Z,8.97
2023-03-31T06:43:31.247Z,9.90
2023-03-31T06:45:57.840Z,9.90
2023-03-31T06:48:25.920Z,11.13
2023-03-31T06:50:55.846Z,10.40
2023-03-31T06:53:23.012Z,9.97
2023-03-31T06:55:49.634Z,10.80
2023-03-31T06:58:16.344Z,9.87
2023-03-31T07:00:43.104Z,11.43
2023-03-31T07:03:09.863Z,10.10
2023-03-31T07:05:36.582Z,11.63
2023-03-31T07:08:03.255Z,11.33
2023-03-31T07:10:30.150Z,9.77
2023-03-31T07:12:56.833Z,11.13
2023-03-31T07:15:23.470Z,10.10
2023-03-31T07:17:51.325Z,9.30
2023-03-31T07:20:18.433Z,9.53
2023-03-31T07:22:45.709Z,9.53
2023-03-31T07:25:12.864Z,10.27
2023-03-31T07:27:39.649Z,7.43
2023-03-31T07:30:11.787Z,8.80
2023-03-31T07:32:41.187Z,8.80
2023-03-31T07:35:08.561Z,9.53
2023-03-31T07:37:35.988Z,8.87
2023-03-31T07:40:05.244Z,7.83
2023-03-31T07:42:32.593Z,7.73
2023-03-31T07:44:59.342Z,7.27
2023-03-31T07:47:27.695Z,7.37
2023-03-31T07:49:54.513Z,7.47
2023-03-31T07:52:21.741Z,6.93
2023-03-31T07:54:48.381Z,6.57
2023-03-31T07:57:20.479Z,6.43
2023-03-31T07:59:47.306Z,7.57
2023-03-31T08:02:14.812Z,7.40
2023-03-31T08:04:44.670Z,6.67
2023-03-31T08:07:11.841Z,7.00
2023-03-31T08:09:38.646Z,6.97
2023-03-31T08:12:05.730Z,6.30
2023-03-31T08:14:40.399Z,5.77
2023-03-31T08:17:08.161Z,6.10
2023-03-31T08:19:34.675Z,7.77
2023-03-31T08:22:01.456Z,7.33
2023-03-31T08:24:28.184Z,7.40
2023-03-31T08:26:55.065Z,6.57
2023-03-31T08:29:21.680Z,6.90
2023-03-31T08:31:49.215Z,6.00
2023-03-31T08:34:16.441Z,5.70
2023-03-31T08:36:43.137Z,5.47
2023-03-31T08:39:09.744Z,5.07
2023-03-31T08:41:47.727Z,4.50
2023-03-31T08:44:33.073Z,4.40
2023-03-31T08:54:52.816Z,3.90
2023-03-31T08:58:21.565Z,3.50
2023-03-31T09:00:57.223Z,3.70
2023-03-31T09:03:34.213Z,3.33
2023-03-31T09:06:03.326Z,3.97
2023-03-31T09:08:31.712Z,4.27
2023-03-31T09:11:00.050Z,3.97
2023-03-31T09:13:44.362Z,5.07
2023-03-31T09:16:16.729Z,3.33
2023-03-31T09:18:49.694Z,2.77
2023-03-31T09:21:31.848Z,3.00
2023-03-31T09:24:26.349Z,3.00
2023-03-31T09:26:57.680Z,3.33
2023-03-31T09:29:44.062Z,2.87
2023-03-31T09:32:20.822Z,4.00
2023-03-31T09:34:48.220Z,3.53
2023-03-31T09:37:15.008Z,3.30
2023-03-31T09:39:41.757Z,3.00
2023-03-31T09:42:12.545Z,3.27
2023-03-31T09:44:39.870Z,2.97
2023-03-31T09:47:10.914Z,3.20
2023-03-31T09:49:38.089Z,2.77
2023-03-31T09:52:06.366Z,3.60
2023-03-31T09:54:42.767Z,2.67
2023-03-31T09:57:16.518Z,2.30
2023-03-31T09:59:45.429Z,2.90
2023-03-31T10:02:21.620Z,2.50
2023-03-31T10:04:48.702Z,2.40
2023-03-31T10:07:19.632Z,2.50
2023-03-31T10:09:46.618Z,2.80
2023-03-31T10:12:20.272Z,3.17
2023-03-31T10:14:48.264Z,2.90
2023-03-31T10:17:15.646Z,2.77
2023-03-31T10:19:50.140Z,2.57
2023-03-31T10:22:17.656Z,2.90
2023-03-31T10:24:44.884Z,3.10
2023-03-31T10:27:27.632Z,2.83
2023-03-31T10:29:54.638Z,3.50
2023-03-31T10:32:23.656Z,3.10
2023-03-31T10:34:50.603Z,3.10
2023-03-31T10:37:18.709Z,3.47
2023-03-31T10:39:47.593Z,3.70
2023-03-31T10:42:23.031Z,4.77
2023-03-31T10:44:50.045Z,3.97
2023-03-31T10:47:21.146Z,4.17
2023-03-31T10:49:52.313Z,3.90
2023-03-31T10:52:27.276Z,3.97
2023-03-31T10:54:59.375Z,3.23
2023-03-31T10:57:41.543Z,3.67
2023-03-31T11:00:15.551Z,3.90
2023-03-31T11:02:56.307Z,3.67
2023-03-31T11:05:27.450Z,3.40
2023-03-31T11:08:07.756Z,2.80
2023-03-31T11:10:55.076Z,3.30
2023-03-31T11:13:25.166Z,3.27
2023-03-31T11:16:07.949Z,2.47
2023-03-31T11:18:35.691Z,2.53
2023-03-31T11:21:02.768Z,2.17
2023-03-31T11:23:45.955Z,2.00
2023-03-31T11:26:32.454Z,2.10
2023-03-31T11:29:01.701Z,2.30
2023-03-31T11:31:48.904Z,1.93
2023-03-31T11:34:29.441Z,1.97
2023-03-31T11:37:26.143Z,2.30
2023-03-31T11:40:28.370Z,2.30
2023-03-31T11:42:59.811Z,2.03
2023-03-31T11:45:31.978Z,2.57
2023-03-31T11:48:04.914Z,2.50
2023-03-31T11:50:34.623Z,2.43
2023-03-31T11:53:02.706Z,2.30
2023-03-31T11:55:30.209Z,1.93
2023-03-31T11:58:10.433Z,2.30
2023-03-31T12:00:52.444Z,2.60
2023-03-31T12:03:31.824Z,2.97
2023-03-31T12:05:59.641Z,2.50
2023-03-31T12:08:31.189Z,2.80
2023-03-31T12:11:04.166Z,3.00
2023-03-31T12:13:33.806Z,2.90
2023-03-31T12:16:01.474Z,2.60
2023-03-31T12:18:29.676Z,2.70
2023-03-31T12:20:56.807Z,2.60
2023-03-31T12:23:25.851Z,2.40
2023-03-31T12:25:55.772Z,1.93
2023-03-31T12:28:23.536Z,2.50
2023-03-31T12:30:51.316Z,2.30
2023-03-31T12:33:24.295Z,2.20
2023-03-31T12:35:54.065Z,2.40
2023-03-31T12:38:35.061Z,2.70
2023-03-31T12:41:15.080Z,2.20
2023-03-31T12:43:50.787Z,2.73
2023-03-31T12:46:32.800Z,3.10
2023-03-31T12:49:05.895Z,2.43
2023-03-31T12:51:43.808Z,2.80
2023-03-31T12:54:20.877Z,2.67
2023-03-31T12:57:03.018Z,2.50
2023-03-31T12:59:35.519Z,2.63
2023-03-31T13:02:15.412Z,3.23
2023-03-31T13:04:42.250Z,2.90
2023-03-31T13:07:29.616Z,2.60
2023-03-31T13:10:16.882Z,3.13
2023-03-31T13:12:43.510Z,3.27
2023-03-31T13:15:13.566Z,2.57
2023-03-31T13:17:41.403Z,3.03
2023-03-31T13:20:16.770Z,3.10
2023-03-31T13:22:48.506Z,3.30
2023-03-31T13:25:27.216Z,3.30
2023-03-31T13:27:55.986Z,3.20
2023-03-31T13:30:41.015Z,3.00
2023-03-31T13:33:12.644Z,2.40
2023-03-31T13:35:42.975Z,2.97
2023-03-31T13:38:31.456Z,2.50
2023-03-31T13:41:24.455Z,2.30
2023-03-31T13:43:59.713Z,2.40
2023-03-31T13:46:32.659Z,2.87
2023-03-31T13:49:18.441Z,2.37
2023-03-31T13:51:58.297Z,2.47
2023-03-31T13:54:34.230Z,2.70
2023-03-31T13:57:03.959Z,3.20
2023-03-31T13:59:49.544Z,3.00
2023-03-31T14:02:32.672Z,3.10
2023-03-31T14:05:18.400Z,2.63
2023-03-31T14:07:46.358Z,4.47
2023-03-31T14:10:29.977Z,3.97
2023-03-31T14:13:06.846Z,3.00
2023-03-31T14:15:33.895Z,2.30
2023-03-31T14:18:00.587Z,2.50
2023-03-31T14:20:38.570Z,6.57
2023-03-31T14:23:06.557Z,3.00
2023-03-31T14:25:33.339Z,2.57
2023-03-31T14:28:13.888Z,2.00
2023-03-31T14:30:43.625Z,4.10
2023-03-31T14:33:17.074Z,2.43
2023-03-31T14:35:58.782Z,2.30
2023-03-31T14:38:28.291Z,2.90
2023-03-31T14:40:57.623Z,3.97
2023-03-31T14:43:25.775Z,3.47
2023-03-31T14:45:57.237Z,3.70
2023-03-31T14:48:23.824Z,3.77
2023-03-31T14:50:51.887Z,4.47
2023-03-31T14:53:20.176Z,5.23
2023-03-31T14:55:58.052Z,5.80
2023-03-31T14:58:45.787Z,5.53
2023-03-31T15:01:14.882Z,5.87
2023-03-31T15:03:44.069Z,6.17
2023-03-31T15:06:11.101Z,5.50
2023-03-31T15:08:38.237Z,7.13
2023-03-31T15:11:13.009Z,5.70
2023-03-31T15:14:03.316Z,6.40
2023-03-31T15:16:35.167Z,7.00
2023-03-31T15:19:05.103Z,6.47
2023-03-31T15:21:32.094Z,6.70
2023-03-31T15:23:58.816Z,7.07
2023-03-31T15:26:34.552Z,7.63
2023-03-31T15:29:28.774Z,6.43
2023-03-31T15:31:58.853Z,6.73
2023-03-31T15:34:27.937Z,6.43
2023-03-31T15:36:55.423Z,7.93
2023-03-31T15:39:22.851Z,7.53
2023-03-31T15:41:49.501Z,9.57
2023-03-31T15:44:34.733Z,9.07
2023-03-31T15:47:06.471Z,8.07
2023-03-31T15:49:33.271Z,23.43
2023-03-31T15:52:02.373Z,16.20
2023-03-31T15:54:40.017Z,23.13
2023-03-31T15:57:08.657Z,13.23
2023-03-31T16:02:43.461Z,9.93
2023-03-31T16:05:28.363Z,10.50
2023-03-31T16:07:56.968Z,10.00
2023-03-31T16:10:23.847Z,11.77
2023-03-31T16:13:02.498Z,14.80
2023-03-31T16:15:36.584Z,9.50
2023-03-31T16:18:05.991Z,25.53
2023-03-31T16:20:37.453Z,8.50
2023-03-31T16:23:12.103Z,11.40
2023-03-31T16:25:39.572Z,10.97
2023-03-31T16:28:06.276Z,14.67
2023-03-31T16:30:47.262Z,12.07
2023-03-31T16:33:14.982Z,8.93
2023-03-31T16:35:45.566Z,10.43
2023-03-31T16:38:16.244Z,9.60
2023-03-31T16:40:46.775Z,10.47
2023-03-31T16:43:19.678Z,9.93
2023-03-31T16:45:49.017Z,11.67
2023-03-31T16:48:17.541Z,13.27
2023-03-31T16:50:45.345Z,13.73
2023-03-31T16:53:15.618Z,12.37
2023-03-31T16:55:43.433Z,12.03
2023-03-31T16:58:10.643Z,11.67
2023-03-31T17:00:39.955Z,14.37
2023-03-31T17:03:07.618Z,13.27
2023-03-31T17:05:44.241Z,12.10
2023-03-31T17:08:12.563Z,16.73
2023-03-31T17:10:39.413Z,15.87
2023-03-31T17:13:07.723Z,16.87
2023-03-31T17:15:36.524Z,12.23
2023-03-31T17:18:04.369Z,13.17
2023-03-31T17:20:31.598Z,13.27
2023-03-31T17:22:58.770Z,13.60
2023-03-31T17:25:25.749Z,14.33
2023-03-31T17:27:53.358Z,14.67
2023-03-31T17:30:20.584Z,11.57
2023-03-31T17:32:50.644Z,11.37
2023-03-31T17:35:21.780Z,10.87
2023-03-31T17:37:51.032Z,12.80
2023-03-31T17:40:18.011Z,12.50
2023-03-31T17:42:44.874Z,15.00
2023-03-31T17:45:13.866Z,15.17
2023-03-31T17:47:41.635Z,13.77
2023-03-31T17:50:11.500Z,11.10
2023-03-31T17:52:39.357Z,25.33
2023-03-31T17:55:06.618Z,23.20
2023-03-31T17:57:35.188Z,18.83
2023-03-31T18:00:04.087Z,12.90
2023-03-31T18:02:40.314Z,13.40
2023-03-31T18:05:07.383Z,11.73
2023-03-31T18:07:36.940Z,12.07
2023-03-31T18:10:07.206Z,12.07
2023-03-31T18:12:34.479Z,12.20
2023-03-31T18:15:03.915Z,13.20
2023-03-31T18:17:31.426Z,13.27
2023-03-31T18:19:59.383Z,14.10
2023-03-31T18:22:26.844Z,20.37
2023-03-31T18:24:55.140Z,22.17
2023-03-31T18:27:25.299Z,23.13
2023-03-31T18:29:52.339Z,19.53
2023-03-31T18:32:19.276Z,13.67
2023-03-31T18:34:47.059Z,14.57
2023-03-31T18:37:15.133Z,12.97
2023-03-31T18:39:43.777Z,13.93
2023-03-31T18:42:10.508Z,13.17
2023-03-31T18:44:39.577Z,12.57
2023-03-31T18:47:06.871Z,13.10
2023-03-31T18:49:37.551Z,14.37
2023-03-31T18:52:06.236Z,13.40
2023-03-31T18:54:34.648Z,13.17
2023-03-31T18:57:04.214Z,14.13
2023-03-31T18:59:33.375Z,14.00
2023-03-31T19:02:00.413Z,14.13
2023-03-31T19:04:27.981Z,14.30
2023-03-31T19:06:58.897Z,15.20
2023-03-31T19:09:28.119Z,13.63
2023-03-31T19:11:55.029Z,14.27
2023-03-31T19:14:22.374Z,13.47
2023-03-31T19:16:49.413Z,12.33
2023-03-31T19:19:16.492Z,13.13
2023-03-31T19:21:44.277Z,14.07
2023-03-31T19:24:11.807Z,16.50
2023-03-31T19:26:40.894Z,14.87
2023-03-31T19:29:07.688Z,15.37
2023-03-31T19:31:38.541Z,14.30
2023-03-31T19:34:06.269Z,13.03
2023-03-31T19:36:33.091Z,12.03
2023-03-31T19:39:01.339Z,12.40
2023-03-31T19:41:28.238Z,11.27
2023-03-31T19:43:55.234Z,11.60
2023-03-31T19:46:23.370Z,13.03
2023-03-31T19:48:51.843Z,11.33
2023-03-31T19:51:19.281Z,18.67
2023-03-31T19:53:46.603Z,11.70
2023-03-31T19:56:14.394Z,12.07
2023-03-31T19:58:41.440Z,17.63
2023-03-31T20:01:09.174Z,11.10
2023-03-31T20:03:36.259Z,7.80
2023-03-31T20:06:07.313Z,8.83
2023-03-31T20:08:35.705Z,10.13
2023-03-31T20:11:03.022Z,11.07
2023-03-31T20:13:33.768Z,12.60
2023-03-31T20:16:00.949Z,11.27
2023-03-31T20:18:29.507Z,11.27
2023-03-31T20:21:23.006Z,9.70
2023-03-31T20:23:50.024Z,8.67
2023-03-31T20:26:19.902Z,8.60
2023-03-31T20:28:47.789Z,8.30
2023-03-31T20:31:15.357Z,7.90
2023-03-31T20:33:44.720Z,9.03
2023-03-31T20:36:12.308Z,8.17
2023-03-31T20:38:40.258Z,8.30
2023-03-31T20:41:07.263Z,8.80
2023-03-31T20:43:35.880Z,9.87
2023-03-31T20:46:06.493Z,9.43
2023-03-31T20:48:43.035Z,9.13
2023-03-31T20:51:10.320Z,9.07
2023-03-31T20:53:42.289Z,8.87
2023-03-31T20:56:12.443Z,8.57
2023-03-31T20:58:42.417Z,10.30
2023-03-31T21:01:11.153Z,9.03
2023-03-31T21:03:37.956Z,10.27
2023-03-31T21:06:06.989Z,10.17
2023-03-31T21:08:39.449Z,9.97
2023-03-31T21:11:07.451Z,10.73
2023-03-31T21:13:35.175Z,9.87
2023-03-31T21:16:05.737Z,9.87
2023-03-31T21:18:33.681Z,9.90
2023-03-31T21:21:01.333Z,10.73
2023-03-31T21:23:29.753Z,10.97
2023-03-31T21:25:57.204Z,12.00
2023-03-31T21:28:25.581Z,12.27
2023-03-31T21:30:54.028Z,13.20
2023-03-31T21:33:24.413Z,12.97
2023-03-31T21:35:51.400Z,14.10
2023-03-31T21:38:18.361Z,12.77
2023-03-31T21:40:45.231Z,12.80
2023-03-31T21:43:12.290Z,12.40
2023-03-31T21:45:39.985Z,11.80
2023-03-31T21:48:08.340Z,12.53
2023-03-31T21:50:35.681Z,13.00
2023-03-31T21:53:05.298Z,12.03
2023-03-31T21:55:33.187Z,12.33
2023-03-31T21:58:00.805Z,11.23
2023-03-31T22:00:28.177Z,12.13
2023-03-31T22:03:06.251Z,11.07
2023-03-31T22:05:37.934Z,10.80
2023-03-31T22:08:04.987Z,10.07
2023-03-31T22:10:31.845Z,9.30
2023-03-31T22:12:59.114Z,9.93
2023-03-31T22:15:26.388Z,10.33
2023-03-31T22:17:53.092Z,10.43
2023-03-31T22:20:20.831Z,10.30
2023-03-31T22:22:47.636Z,11.20
2023-03-31T22:25:14.708Z,9.93
2023-03-31T22:27:42.048Z,11.27
2023-03-31T22:30:09.839Z,10.97
2023-03-31T22:32:36.647Z,10.07
2023-03-31T22:35:03.476Z,10.40
2023-03-31T22:37:30.141Z,10.33
2023-03-31T22:39:56.995Z,9.70
2023-03-31T22:42:23.991Z,9.70
2023-03-31T22:44:51.635Z,10.27
2023-03-31T22:47:18.345Z,9.57
2023-03-31T22:49:45.208Z,10.27
2023-03-31T22:52:13.208Z,9.50
2023-03-31T22:54:41.370Z,9.17
2023-03-31T22:57:08.503Z,8.87
2023-03-31T22:59:36.753Z,9.53
2023-03-31T23:02:03.628Z,8.17
2023-03-31T23:04:30.614Z,8.40
2023-03-31T23:06:57.762Z,7.47
2023-03-31T23:09:24.690Z,8.93
2023-03-31T23:11:51.638Z,7.80
2023-03-31T23:14:19.688Z,7.63
2023-03-31T23:16:46.538Z,7.00
2023-03-31T23:19:13.405Z,7.77
2023-03-31T23:21:40.042Z,8.23
2023-03-31T23:24:06.855Z,7.97
2023-03-31T23:26:33.695Z,7.50
2023-03-31T23:29:00.538Z,5.93
2023-03-31T23:31:28.236Z,6.30
2023-03-31T23:33:54.854Z,6.50
2023-03-31T23:36:21.728Z,6.40
2023-03-31T23:38:48.891Z,7.00
2023-03-31T23:41:15.821Z,7.83
2023-03-31T23:43:42.392Z,8.83
2023-03-31T23:46:09.231Z,9.77
2023-03-31T23:48:36.591Z,9.93
2023-03-31T23:51:03.727Z,9.87
2023-03-31T23:53:30.760Z,10.70
2023-03-31T23:55:58.340Z,11.50
2023-03-31T23:58:25.512Z,10.20
